Aeroporto :
LOGIN :

Iscrizione | Disclaimer

   EN    FR    IT 

 










Sommario :    VFR   VFR Marginale   IFR   IFR Intensivo   IFR Molto Intensivo
Visibilità : 
Base nubi : 
>= 8 km
>= 3000ft
5 / 8 km
1000 / 3000 ft
1500m / 5 km
500 / 1000 ft
800 / 1500m
200 / 500 ft
< 800m
< 200 ft
Simboli :   Temporali  Nebbia  Neve Forte  Precipitazioni Forti  Vento > 20 kt
SIGMETs :   Varie  Temporali  Ghiacco  Turbolenza  Onda orograficha  Ceneri Vulcaniche






- Altitudine del aeroporto : 197 ft
- Codice IATA : XOG


LFMO - Orange

ULTIMO METAR :
  • 191630Z AUTO 15016G27KT 9999 FEW028 SCT039 BKN100 21/17 Q1009 TEMPO SHRA SCT014 BKN020TCU

METARs OBSOLETI :
  • 191600Z AUTO 15016KT 9999 SCT027 BKN098 BKN180 22/17 Q1009 TEMPO 17020G35KT SHRA SCT014 BKN020TCU
  • 191530Z AUTO 15014KT 120V180 9999 FEW026 BKN035 BKN078 22/17 Q1009 TEMPO 17020G35KT SHRA SCT014 BKN020TCU
  • 191500Z AUTO 15015KT 9999 FEW027 BKN076 OVC094 22/17 Q1009 TEMPO 17020G35KT SHRA SCT014 BKN020TCU
  • 191430Z AUTO 16018KT 9999 FEW028/// BKN066/// BKN082/// ///TCU 22/17 Q1009 TEMPO 17020G35KT SHRA
  • 191400Z AUTO 16016KT 120V180 9999 SCT028/// BKN039/// BKN066/// ///TCU 22/17 Q1008 TEMPO 17020G35KT 4000 -SHRA

TAF TAF LFMO
Valido dal 19 a 15 ore il 20 a 15 ore UTC


191400Z 1915/2015 16015KT 9999 SCT020 BKN030
TEMPO 1915/2015 17020G35KT
TEMPO 1915/2015 SHRA SCT014 BKN020TCU



MetMap, La meteo Aeronautica in un colpo d'occhio ! - Copyright ORBIFLY Dicembre 2007 - Disclaimer

ORBIFLY MET'MAP TEAM :

Programmazione e sviluppo : Alexandra Zaïnal
Concezione e sviluppo : Baudouin d'Aumeries
Co-Programmazione e sviluppo : Marc-Olivier Méhu
Supporto tecnico e logistico : Manuel Goepfert
Aiuto per la traduzione : Arnaldo La Scala

Contatto : metmap@orbifly.com




FONTI E CREDITI :

   NOAA